sensor_id;sensor_type;location;lat;lon;timestamp;pressure;altitude;pressure_sealevel;temperature;humidity
28000;BME280;15328;50.860;10.562;2022-11-04T00:02:29;95227.50;;;11.67;58.46
28000;BME280;15328;50.860;10.562;2022-11-04T00:07:30;95240.50;;;11.64;59.52
28000;BME280;15328;50.860;10.562;2022-11-04T00:12:51;95232.22;;;11.60;59.34
28000;BME280;15328;50.860;10.562;2022-11-04T00:17:51;95231.72;;;11.63;59.69
28000;BME280;15328;50.860;10.562;2022-11-04T00:22:52;95224.31;;;11.70;59.25
28000;BME280;15328;50.860;10.562;2022-11-04T00:28:15;95221.25;;;11.79;59.63
28000;BME280;15328;50.860;10.562;2022-11-04T00:33:34;95218.97;;;11.97;59.35
28000;BME280;15328;50.860;10.562;2022-11-04T00:38:35;95218.97;;;11.97;59.11
28000;BME280;15328;50.860;10.562;2022-11-04T00:43:35;95226.72;;;12.04;58.65
28000;BME280;15328;50.860;10.562;2022-11-04T00:48:35;95238.19;;;12.04;59.13
28000;BME280;15328;50.860;10.562;2022-11-04T00:53:36;95252.97;;;12.17;58.98
28000;BME280;15328;50.860;10.562;2022-11-04T00:58:36;95267.75;;;11.98;60.47
28000;BME280;15328;50.860;10.562;2022-11-04T01:03:36;95268.38;;;12.10;60.60
28000;BME280;15328;50.860;10.562;2022-11-04T01:08:37;95269.88;;;12.01;61.20
28000;BME280;15328;50.860;10.562;2022-11-04T01:13:38;95288.25;;;11.97;61.96
28000;BME280;15328;50.860;10.562;2022-11-04T01:18:39;95265.84;;;11.93;62.11
28000;BME280;15328;50.860;10.562;2022-11-04T01:23:41;95259.13;;;11.86;62.40
28000;BME280;15328;50.860;10.562;2022-11-04T01:28:43;95257.22;;;11.81;63.50
28000;BME280;15328;50.860;10.562;2022-11-04T01:33:43;95260.94;;;11.53;65.28
28000;BME280;15328;50.860;10.562;2022-11-04T01:38:44;95255.06;;;11.51;66.08
28000;BME280;15328;50.860;10.562;2022-11-04T01:48:48;95230.03;;;11.52;66.29
28000;BME280;15328;50.860;10.562;2022-11-04T01:53:50;95206.22;;;11.40;66.56
28000;BME280;15328;50.860;10.562;2022-11-04T01:58:53;95192.09;;;11.40;66.58
28000;BME280;15328;50.860;10.562;2022-11-04T02:03:57;95220.38;;;11.46;66.92
28000;BME280;15328;50.860;10.562;2022-11-04T02:09:22;95228.44;;;11.51;66.90
28000;BME280;15328;50.860;10.562;2022-11-04T02:14:23;95247.91;;;11.57;66.86
28000;BME280;15328;50.860;10.562;2022-11-04T02:19:39;95254.88;;;11.63;66.91
28000;BME280;15328;50.860;10.562;2022-11-04T02:25:00;95248.78;;;11.67;66.11
28000;BME280;15328;50.860;10.562;2022-11-04T02:35:11;95264.22;;;11.65;66.49
28000;BME280;15328;50.860;10.562;2022-11-04T02:45:38;95288.00;;;11.72;66.60
28000;BME280;15328;50.860;10.562;2022-11-04T02:50:44;95287.34;;;11.82;65.55
28000;BME280;15328;50.860;10.562;2022-11-04T02:55:52;95282.91;;;11.70;65.71
28000;BME280;15328;50.860;10.562;2022-11-04T03:00:55;95281.34;;;11.74;65.24
28000;BME280;15328;50.860;10.562;2022-11-04T03:05:59;95289.50;;;11.85;65.66
28000;BME280;15328;50.860;10.562;2022-11-04T03:11:09;95294.81;;;11.85;65.62
28000;BME280;15328;50.860;10.562;2022-11-04T03:16:15;95296.50;;;11.96;65.31
28000;BME280;15328;50.860;10.562;2022-11-04T03:21:18;95302.38;;;11.98;65.18
28000;BME280;15328;50.860;10.562;2022-11-04T03:26:25;95303.19;;;11.98;64.79
28000;BME280;15328;50.860;10.562;2022-11-04T03:31:37;95317.28;;;11.94;65.19
28000;BME280;15328;50.860;10.562;2022-11-04T03:36:40;95309.31;;;11.99;65.42
28000;BME280;15328;50.860;10.562;2022-11-04T03:41:45;95299.97;;;11.96;65.79
28000;BME280;15328;50.860;10.562;2022-11-04T03:46:47;95312.50;;;11.96;66.33
28000;BME280;15328;50.860;10.562;2022-11-04T03:51:49;95311.47;;;12.02;66.76
28000;BME280;15328;50.860;10.562;2022-11-04T04:02:24;95343.66;;;11.95;66.39
28000;BME280;15328;50.860;10.562;2022-11-04T04:07:34;95363.38;;;11.94;66.61
28000;BME280;15328;50.860;10.562;2022-11-04T04:12:37;95354.28;;;11.90;66.68
28000;BME280;15328;50.860;10.562;2022-11-04T04:17:45;95352.38;;;11.86;65.78
28000;BME280;15328;50.860;10.562;2022-11-04T04:23:07;95350.13;;;11.77;64.75
28000;BME280;15328;50.860;10.562;2022-11-04T04:28:28;95359.31;;;11.65;64.36
28000;BME280;15328;50.860;10.562;2022-11-04T04:33:29;95366.66;;;11.53;64.47
28000;BME280;15328;50.860;10.562;2022-11-04T04:38:31;95370.59;;;11.50;64.48
28000;BME280;15328;50.860;10.562;2022-11-04T04:43:50;95379.34;;;11.45;64.59
28000;BME280;15328;50.860;10.562;2022-11-04T04:49:09;95376.41;;;11.47;64.44
28000;BME280;15328;50.860;10.562;2022-11-04T04:54:10;95376.06;;;11.38;64.84
28000;BME280;15328;50.860;10.562;2022-11-04T04:59:10;95408.50;;;11.35;64.06
28000;BME280;15328;50.860;10.562;2022-11-04T05:04:10;95404.72;;;11.31;63.99
28000;BME280;15328;50.860;10.562;2022-11-04T05:09:11;95415.56;;;11.25;63.39
28000;BME280;15328;50.860;10.562;2022-11-04T05:14:11;95391.22;;;11.16;64.01
28000;BME280;15328;50.860;10.562;2022-11-04T05:19:12;95383.53;;;11.20;63.63
28000;BME280;15328;50.860;10.562;2022-11-04T05:24:12;95407.38;;;11.09;63.24
28000;BME280;15328;50.860;10.562;2022-11-04T05:29:13;95406.56;;;11.09;62.48
28000;BME280;15328;50.860;10.562;2022-11-04T05:34:13;95400.22;;;10.93;62.23
28000;BME280;15328;50.860;10.562;2022-11-04T05:39:14;95428.34;;;10.89;61.83
28000;BME280;15328;50.860;10.562;2022-11-04T05:44:14;95445.53;;;10.81;61.97
28000;BME280;15328;50.860;10.562;2022-11-04T05:49:15;95437.88;;;10.85;63.36
28000;BME280;15328;50.860;10.562;2022-11-04T05:54:15;95429.91;;;10.85;63.38
28000;BME280;15328;50.860;10.562;2022-11-04T05:59:15;95437.38;;;10.88;63.23
28000;BME280;15328;50.860;10.562;2022-11-04T06:04:17;95457.78;;;10.82;62.90
28000;BME280;15328;50.860;10.562;2022-11-04T06:09:17;95452.31;;;10.89;62.39
28000;BME280;15328;50.860;10.562;2022-11-04T06:14:18;95460.53;;;10.88;62.65
28000;BME280;15328;50.860;10.562;2022-11-04T06:19:18;95460.88;;;10.74;63.16
28000;BME280;15328;50.860;10.562;2022-11-04T06:24:19;95447.00;;;10.72;63.41
28000;BME280;15328;50.860;10.562;2022-11-04T06:29:19;95457.41;;;10.74;62.45
28000;BME280;15328;50.860;10.562;2022-11-04T06:34:19;95454.41;;;10.70;62.29
28000;BME280;15328;50.860;10.562;2022-11-04T06:39:19;95456.09;;;10.76;61.88
28000;BME280;15328;50.860;10.562;2022-11-04T06:44:20;95455.13;;;10.66;61.92
28000;BME280;15328;50.860;10.562;2022-11-04T06:49:21;95435.63;;;10.60;61.40
28000;BME280;15328;50.860;10.562;2022-11-04T06:54:24;95448.84;;;10.55;61.38
28000;BME280;15328;50.860;10.562;2022-11-04T06:59:24;95459.81;;;10.59;61.15
28000;BME280;15328;50.860;10.562;2022-11-04T07:04:25;95480.28;;;10.58;60.95
28000;BME280;15328;50.860;10.562;2022-11-04T07:09:25;95490.66;;;10.60;60.79
28000;BME280;15328;50.860;10.562;2022-11-04T07:14:25;95494.44;;;10.64;60.29
28000;BME280;15328;50.860;10.562;2022-11-04T07:19:26;95512.50;;;10.62;60.49
28000;BME280;15328;50.860;10.562;2022-11-04T07:24:26;95504.16;;;10.70;59.58
28000;BME280;15328;50.860;10.562;2022-11-04T07:29:27;95490.63;;;10.71;60.43
28000;BME280;15328;50.860;10.562;2022-11-04T07:34:27;95539.78;;;10.69;60.03
28000;BME280;15328;50.860;10.562;2022-11-04T07:39:28;95540.59;;;10.69;59.99
28000;BME280;15328;50.860;10.562;2022-11-04T07:44:28;95564.16;;;10.66;59.21
28000;BME280;15328;50.860;10.562;2022-11-04T07:49:28;95556.91;;;10.61;59.79
28000;BME280;15328;50.860;10.562;2022-11-04T07:54:29;95555.31;;;10.60;59.01
28000;BME280;15328;50.860;10.562;2022-11-04T07:59:29;95559.56;;;10.61;58.59
28000;BME280;15328;50.860;10.562;2022-11-04T08:04:29;95564.00;;;10.56;59.02
28000;BME280;15328;50.860;10.562;2022-11-04T08:09:30;95569.88;;;10.58;59.15
28000;BME280;15328;50.860;10.562;2022-11-04T08:14:30;95578.09;;;10.56;59.45
28000;BME280;15328;50.860;10.562;2022-11-04T08:19:31;95574.13;;;10.70;58.87
28000;BME280;15328;50.860;10.562;2022-11-04T08:24:31;95576.78;;;10.70;59.60
28000;BME280;15328;50.860;10.562;2022-11-04T08:29:33;95559.84;;;10.76;59.45
28000;BME280;15328;50.860;10.562;2022-11-04T08:34:33;95557.75;;;10.78;58.48
28000;BME280;15328;50.860;10.562;2022-11-04T08:39:33;95534.94;;;10.82;58.11
28000;BME280;15328;50.860;10.562;2022-11-04T08:44:34;95526.22;;;10.87;58.59
28000;BME280;15328;50.860;10.562;2022-11-04T08:49:37;95499.38;;;10.89;58.63
28000;BME280;15328;50.860;10.562;2022-11-04T08:54:38;95495.75;;;10.95;58.01
28000;BME280;15328;50.860;10.562;2022-11-04T08:59:38;95483.81;;;11.14;57.53
28000;BME280;15328;50.860;10.562;2022-11-04T09:04:38;95484.44;;;11.38;57.72
28000;BME280;15328;50.860;10.562;2022-11-04T09:09:40;95504.75;;;11.44;56.24
28000;BME280;15328;50.860;10.562;2022-11-04T09:14:40;95510.66;;;11.68;57.05
28000;BME280;15328;50.860;10.562;2022-11-04T09:19:41;95517.28;;;11.65;56.75
28000;BME280;15328;50.860;10.562;2022-11-04T09:24:41;95535.38;;;11.63;55.25
28000;BME280;15328;50.860;10.562;2022-11-04T09:29:42;95559.47;;;11.73;55.87
28000;BME280;15328;50.860;10.562;2022-11-04T09:34:42;95566.66;;;11.73;55.84
28000;BME280;15328;50.860;10.562;2022-11-04T09:39:43;95573.84;;;11.72;56.35
28000;BME280;15328;50.860;10.562;2022-11-04T09:50:26;95572.75;;;11.68;55.66
28000;BME280;15328;50.860;10.562;2022-11-04T09:55:51;95559.59;;;11.62;55.36
28000;BME280;15328;50.860;10.562;2022-11-04T10:01:03;95561.22;;;11.63;55.66
28000;BME280;15328;50.860;10.562;2022-11-04T10:06:28;95557.06;;;11.72;55.42
28000;BME280;15328;50.860;10.562;2022-11-04T10:11:42;95555.75;;;11.74;54.76
28000;BME280;15328;50.860;10.562;2022-11-04T10:16:54;95553.34;;;11.73;55.22
28000;BME280;15328;50.860;10.562;2022-11-04T10:22:13;95552.47;;;11.84;55.12
28000;BME280;15328;50.860;10.562;2022-11-04T10:27:21;95563.81;;;11.96;54.67
28000;BME280;15328;50.860;10.562;2022-11-04T10:32:32;95542.66;;;12.06;54.54
28000;BME280;15328;50.860;10.562;2022-11-04T10:37:34;95540.59;;;12.14;54.14
28000;BME280;15328;50.860;10.562;2022-11-04T10:42:35;95542.09;;;12.31;53.67
28000;BME280;15328;50.860;10.562;2022-11-04T10:47:46;95530.59;;;12.26;53.62
28000;BME280;15328;50.860;10.562;2022-11-04T10:52:49;95530.25;;;12.44;53.81
28000;BME280;15328;50.860;10.562;2022-11-04T10:57:54;95529.19;;;12.45;53.11
28000;BME280;15328;50.860;10.562;2022-11-04T11:02:55;95525.19;;;12.43;53.30
28000;BME280;15328;50.860;10.562;2022-11-04T11:07:56;95522.41;;;12.59;53.42
28000;BME280;15328;50.860;10.562;2022-11-04T11:12:58;95529.19;;;12.72;53.18
28000;BME280;15328;50.860;10.562;2022-11-04T11:23:42;95543.00;;;13.18;52.09
28000;BME280;15328;50.860;10.562;2022-11-04T11:28:54;95541.22;;;13.71;51.16
28000;BME280;15328;50.860;10.562;2022-11-04T11:34:04;95545.00;;;13.80;47.94
28000;BME280;15328;50.860;10.562;2022-11-04T11:44:25;95544.16;;;14.32;47.80
28000;BME280;15328;50.860;10.562;2022-11-04T11:49:35;95539.63;;;14.37;47.28
28000;BME280;15328;50.860;10.562;2022-11-04T11:54:36;95553.31;;;14.46;47.24
28000;BME280;15328;50.860;10.562;2022-11-04T11:59:45;95565.69;;;14.62;47.25
28000;BME280;15328;50.860;10.562;2022-11-04T12:04:47;95562.47;;;14.65;45.93
28000;BME280;15328;50.860;10.562;2022-11-04T12:09:55;95558.78;;;14.81;45.18
28000;BME280;15328;50.860;10.562;2022-11-04T12:15:24;95558.53;;;15.03;44.69
28000;BME280;15328;50.860;10.562;2022-11-04T12:20:35;95559.91;;;15.36;45.10
28000;BME280;15328;50.860;10.562;2022-11-04T12:25:49;95553.19;;;15.19;43.49
28000;BME280;15328;50.860;10.562;2022-11-04T12:36:21;95555.03;;;14.88;44.39
28000;BME280;15328;50.860;10.562;2022-11-04T13:04:20;95559.28;;;17.77;37.62
28000;BME280;15328;50.860;10.562;2022-11-04T13:14:27;95571.91;;;16.69;38.87
28000;BME280;15328;50.860;10.562;2022-11-04T13:19:34;95584.94;;;16.27;39.93
28000;BME280;15328;50.860;10.562;2022-11-04T13:24:38;95584.50;;;15.99;40.98
28000;BME280;15328;50.860;10.562;2022-11-04T13:29:40;95578.38;;;15.79;41.34
28000;BME280;15328;50.860;10.562;2022-11-04T13:35:00;95584.53;;;15.43;41.79
28000;BME280;15328;50.860;10.562;2022-11-04T13:40:19;95587.19;;;14.98;42.27
28000;BME280;15328;50.860;10.562;2022-11-04T13:45:21;95580.44;;;14.70;43.28
28000;BME280;15328;50.860;10.562;2022-11-04T13:50:35;95587.88;;;14.52;43.57
28000;BME280;15328;50.860;10.562;2022-11-04T13:55:48;95607.47;;;14.16;44.09
28000;BME280;15328;50.860;10.562;2022-11-04T14:27:46;95649.06;;;13.27;46.44
28000;BME280;15328;50.860;10.562;2022-11-04T14:32:46;95648.81;;;13.29;47.70
28000;BME280;15328;50.860;10.562;2022-11-04T14:37:51;95651.72;;;13.22;48.66
28000;BME280;15328;50.860;10.562;2022-11-04T14:42:54;95651.31;;;13.14;48.54
28000;BME280;15328;50.860;10.562;2022-11-04T14:48:17;95654.75;;;13.09;49.23
28000;BME280;15328;50.860;10.562;2022-11-04T14:53:24;95668.03;;;13.04;49.80
28000;BME280;15328;50.860;10.562;2022-11-04T14:58:26;95666.94;;;13.00;51.29
28000;BME280;15328;50.860;10.562;2022-11-04T15:03:36;95669.31;;;12.96;51.53
28000;BME280;15328;50.860;10.562;2022-11-04T15:13:46;95677.50;;;12.90;52.06
28000;BME280;15328;50.860;10.562;2022-11-04T15:18:47;95680.44;;;12.88;53.31
28000;BME280;15328;50.860;10.562;2022-11-04T15:23:50;95678.19;;;12.80;53.49
28000;BME280;15328;50.860;10.562;2022-11-04T15:28:52;95687.13;;;12.69;53.52
28000;BME280;15328;50.860;10.562;2022-11-04T15:33:56;95691.22;;;12.55;53.14
28000;BME280;15328;50.860;10.562;2022-11-04T15:44:20;95688.16;;;12.24;53.78
28000;BME280;15328;50.860;10.562;2022-11-04T15:49:27;95690.19;;;12.17;53.76
28000;BME280;15328;50.860;10.562;2022-11-04T15:54:30;95689.72;;;12.03;54.35
28000;BME280;15328;50.860;10.562;2022-11-04T15:59:33;95688.53;;;11.94;54.91
28000;BME280;15328;50.860;10.562;2022-11-04T16:04:35;95701.47;;;11.86;54.80
28000;BME280;15328;50.860;10.562;2022-11-04T16:09:50;95696.97;;;11.74;55.11
28000;BME280;15328;50.860;10.562;2022-11-04T16:14:56;95703.44;;;11.62;55.09
28000;BME280;15328;50.860;10.562;2022-11-04T16:20:03;95707.94;;;11.44;55.54
28000;BME280;15328;50.860;10.562;2022-11-04T16:25:06;95705.19;;;11.39;55.87
28000;BME280;15328;50.860;10.562;2022-11-04T16:30:21;95714.78;;;11.24;56.25
28000;BME280;15328;50.860;10.562;2022-11-04T16:35:24;95728.13;;;11.12;56.81
28000;BME280;15328;50.860;10.562;2022-11-04T16:40:25;95729.00;;;11.01;56.71
28000;BME280;15328;50.860;10.562;2022-11-04T16:45:30;95733.75;;;10.87;56.98
28000;BME280;15328;50.860;10.562;2022-11-04T16:50:31;95746.97;;;10.82;57.69
28000;BME280;15328;50.860;10.562;2022-11-04T16:55:31;95748.25;;;10.79;57.28
28000;BME280;15328;50.860;10.562;2022-11-04T17:00:33;95754.53;;;10.73;57.51
28000;BME280;15328;50.860;10.562;2022-11-04T17:05:33;95744.69;;;10.62;57.89
28000;BME280;15328;50.860;10.562;2022-11-04T17:10:34;95752.09;;;10.60;57.38
28000;BME280;15328;50.860;10.562;2022-11-04T17:15:35;95758.72;;;10.34;58.90
28000;BME280;15328;50.860;10.562;2022-11-04T17:20:35;95760.06;;;10.13;58.85
28000;BME280;15328;50.860;10.562;2022-11-04T17:25:36;95773.28;;;10.20;58.50
28000;BME280;15328;50.860;10.562;2022-11-04T17:30:36;95773.81;;;10.10;59.46
28000;BME280;15328;50.860;10.562;2022-11-04T17:35:39;95782.16;;;9.90;60.07
28000;BME280;15328;50.860;10.562;2022-11-04T17:40:41;95795.78;;;9.94;60.52
28000;BME280;15328;50.860;10.562;2022-11-04T17:46:00;95796.81;;;9.93;60.45
28000;BME280;15328;50.860;10.562;2022-11-04T17:51:20;95808.38;;;9.99;60.75
28000;BME280;15328;50.860;10.562;2022-11-04T17:56:22;95816.22;;;9.94;60.41
28000;BME280;15328;50.860;10.562;2022-11-04T18:01:22;95809.75;;;10.01;60.76
28000;BME280;15328;50.860;10.562;2022-11-04T18:06:24;95807.56;;;10.10;60.42
28000;BME280;15328;50.860;10.562;2022-11-04T18:11:26;95812.88;;;10.10;60.67
28000;BME280;15328;50.860;10.562;2022-11-04T18:16:47;95812.41;;;10.13;60.59
28000;BME280;15328;50.860;10.562;2022-11-04T18:21:49;95814.25;;;10.12;61.33
28000;BME280;15328;50.860;10.562;2022-11-04T18:26:50;95823.03;;;10.13;61.41
28000;BME280;15328;50.860;10.562;2022-11-04T18:31:50;95820.75;;;10.16;60.96
28000;BME280;15328;50.860;10.562;2022-11-04T18:36:50;95827.69;;;10.17;61.40
28000;BME280;15328;50.860;10.562;2022-11-04T18:41:51;95830.34;;;10.17;61.29
28000;BME280;15328;50.860;10.562;2022-11-04T18:46:51;95832.34;;;10.22;61.42
28000;BME280;15328;50.860;10.562;2022-11-04T18:51:52;95838.00;;;10.26;61.83
28000;BME280;15328;50.860;10.562;2022-11-04T18:56:52;95841.94;;;10.23;61.55
28000;BME280;15328;50.860;10.562;2022-11-04T19:01:52;95839.06;;;10.25;61.71
28000;BME280;15328;50.860;10.562;2022-11-04T19:06:53;95848.72;;;10.19;61.57
28000;BME280;15328;50.860;10.562;2022-11-04T19:11:53;95853.00;;;10.20;61.49
28000;BME280;15328;50.860;10.562;2022-11-04T19:17:13;95863.22;;;10.23;61.79
28000;BME280;15328;50.860;10.562;2022-11-04T19:22:14;95867.25;;;10.26;62.04
28000;BME280;15328;50.860;10.562;2022-11-04T19:27:14;95866.78;;;10.29;62.33
28000;BME280;15328;50.860;10.562;2022-11-04T19:32:17;95884.59;;;10.40;62.19
28000;BME280;15328;50.860;10.562;2022-11-04T19:37:17;95891.41;;;10.36;61.49
28000;BME280;15328;50.860;10.562;2022-11-04T19:42:18;95899.63;;;10.34;61.63
28000;BME280;15328;50.860;10.562;2022-11-04T19:47:36;95913.03;;;10.28;61.04
28000;BME280;15328;50.860;10.562;2022-11-04T19:52:37;95913.59;;;10.30;60.45
28000;BME280;15328;50.860;10.562;2022-11-04T19:57:37;95925.06;;;10.30;60.84
28000;BME280;15328;50.860;10.562;2022-11-04T20:02:38;95943.69;;;10.12;61.61
28000;BME280;15328;50.860;10.562;2022-11-04T20:07:38;95946.09;;;10.02;62.19
28000;BME280;15328;50.860;10.562;2022-11-04T20:12:39;95945.94;;;9.97;62.98
28000;BME280;15328;50.860;10.562;2022-11-04T20:17:58;95952.19;;;9.90;63.25
28000;BME280;15328;50.860;10.562;2022-11-04T20:22:59;95955.78;;;9.96;63.23
28000;BME280;15328;50.860;10.562;2022-11-04T20:28:00;95963.06;;;10.01;64.10
28000;BME280;15328;50.860;10.562;2022-11-04T20:33:01;95961.13;;;10.08;64.36
28000;BME280;15328;50.860;10.562;2022-11-04T20:38:01;95968.06;;;10.09;63.88
28000;BME280;15328;50.860;10.562;2022-11-04T20:43:02;95970.25;;;10.12;65.10
28000;BME280;15328;50.860;10.562;2022-11-04T20:48:04;95974.53;;;10.13;65.14
28000;BME280;15328;50.860;10.562;2022-11-04T20:53:04;95981.22;;;10.22;64.70
28000;BME280;15328;50.860;10.562;2022-11-04T20:58:04;95985.16;;;10.31;64.53
28000;BME280;15328;50.860;10.562;2022-11-04T21:03:05;95994.03;;;10.25;64.33
28000;BME280;15328;50.860;10.562;2022-11-04T21:08:05;95990.81;;;10.23;64.99
28000;BME280;15328;50.860;10.562;2022-11-04T21:13:06;95993.00;;;10.08;64.30
28000;BME280;15328;50.860;10.562;2022-11-04T21:18:07;96009.94;;;9.95;64.92
28000;BME280;15328;50.860;10.562;2022-11-04T21:23:09;96021.38;;;9.96;64.74
28000;BME280;15328;50.860;10.562;2022-11-04T21:28:10;96014.16;;;9.84;64.57
28000;BME280;15328;50.860;10.562;2022-11-04T21:33:11;96018.88;;;9.82;65.21
28000;BME280;15328;50.860;10.562;2022-11-04T21:38:14;96026.25;;;9.80;64.94
28000;BME280;15328;50.860;10.562;2022-11-04T21:43:14;96021.16;;;9.79;65.56
28000;BME280;15328;50.860;10.562;2022-11-04T21:48:15;96022.94;;;9.85;66.42
28000;BME280;15328;50.860;10.562;2022-11-04T21:53:15;96040.94;;;9.83;65.94
28000;BME280;15328;50.860;10.562;2022-11-04T21:58:15;96037.63;;;9.87;66.05
28000;BME280;15328;50.860;10.562;2022-11-04T22:03:16;96037.34;;;9.96;66.32
28000;BME280;15328;50.860;10.562;2022-11-04T22:08:16;96042.91;;;10.06;66.60
28000;BME280;15328;50.860;10.562;2022-11-04T22:13:16;96035.53;;;10.08;65.83
28000;BME280;15328;50.860;10.562;2022-11-04T22:18:18;96036.66;;;10.00;65.10
28000;BME280;15328;50.860;10.562;2022-11-04T22:23:18;96037.97;;;10.09;65.14
28000;BME280;15328;50.860;10.562;2022-11-04T22:28:19;96042.25;;;10.10;65.52
28000;BME280;15328;50.860;10.562;2022-11-04T22:33:20;96042.63;;;10.14;65.56
28000;BME280;15328;50.860;10.562;2022-11-04T22:38:20;96047.94;;;10.14;65.84
28000;BME280;15328;50.860;10.562;2022-11-04T22:43:20;96058.06;;;10.24;65.29
28000;BME280;15328;50.860;10.562;2022-11-04T22:48:21;96062.03;;;10.14;66.57
28000;BME280;15328;50.860;10.562;2022-11-04T22:53:23;96066.56;;;10.14;66.22
28000;BME280;15328;50.860;10.562;2022-11-04T22:58:23;96064.84;;;10.19;66.37
28000;BME280;15328;50.860;10.562;2022-11-04T23:03:24;96068.53;;;10.18;66.21
28000;BME280;15328;50.860;10.562;2022-11-04T23:08:26;96072.44;;;10.16;66.22
28000;BME280;15328;50.860;10.562;2022-11-04T23:13:27;96066.84;;;10.24;65.54
28000;BME280;15328;50.860;10.562;2022-11-04T23:18:48;96071.94;;;10.26;65.72
28000;BME280;15328;50.860;10.562;2022-11-04T23:23:50;96078.53;;;10.23;66.49
28000;BME280;15328;50.860;10.562;2022-11-04T23:29:08;96078.13;;;10.19;66.42
28000;BME280;15328;50.860;10.562;2022-11-04T23:34:27;96076.72;;;10.17;66.43
28000;BME280;15328;50.860;10.562;2022-11-04T23:39:48;96093.22;;;10.26;66.78
28000;BME280;15328;50.860;10.562;2022-11-04T23:44:53;96091.50;;;10.31;66.77
28000;BME280;15328;50.860;10.562;2022-11-04T23:50:12;96092.19;;;10.27;67.04
28000;BME280;15328;50.860;10.562;2022-11-04T23:55:31;96094.06;;;10.19;67.18
